• Join FlightAware (Why Join?)
  • Login
  • US Flag 
06:50AM EDT


 

Airport Tracker/Info


-or-


 

Live Flight TrackerFlight Track Log ✈ THY1657 ✈ 05-Jul-2013 ✈ LTAF / ADA - EDDH / HAM

Flight Track Log - Related Links

Times and Time Zones

All times are in EDT time to prevent confusion due to time zone crossing. See the THY1657 flight status page for this flight to view local times or setup timezone preferences in your user account.

Time Position Orientation Groundspeed Altitude Reporting Facility
EDT Latitude Longitude Course Direction KTS MPH feet Rate Location/Type
08:51PM 39.2480 32.9463 322° Northwest  Level Estimated
08:52PM 39.3342 32.8536 320° Northwest  Level Estimated
08:53PM 39.4203 32.7607 320° Northwest  Level Estimated
08:54PM 39.5064 32.6675 320° Northwest  Level Estimated
08:55PM 39.5923 32.5740 320° Northwest  Level Estimated
08:56PM 39.6782 32.4804 320° Northwest  Level Estimated
08:57PM 39.7641 32.3865 320° Northwest  Level Estimated
08:58PM 39.8498 32.2924 320° Northwest  Level Estimated
08:59PM 39.9355 32.1980 320° Northwest  Level Estimated
09:00PM 40.0211 32.1035 320° Northwest  Level Estimated
09:01PM 40.1066 32.0086 320° Northwest  Level Estimated
09:02PM 40.1921 31.9135 320° Northwest  Level Estimated
09:03PM 40.2774 31.8182 320° Northwest  Level Estimated
09:04PM 40.3627 31.7227 320° Northwest  Level Estimated
09:05PM 40.4479 31.6269 319° Northwest  Level Estimated
09:06PM 40.5331 31.5309 319° Northwest  Level Estimated
09:07PM 40.6181 31.4346 319° Northwest  Level Estimated
09:08PM 40.7031 31.3381 319° Northwest  Level Estimated
09:09PM 40.7880 31.2413 319° Northwest  Level Estimated
09:10PM 40.8728 31.1443 319° Northwest  Level Estimated
09:11PM 40.9575 31.0470 319° Northwest  Level Estimated
09:12PM 41.0421 30.9495 319° Northwest  Level Estimated
09:13PM 41.1267 30.8517 319° Northwest  Level Estimated
09:14PM 41.2112 30.7537 319° Northwest  Level Estimated
09:15PM 41.2956 30.6555 319° Northwest  Level Estimated
09:16PM 41.3799 30.5569 319° Northwest  Level Estimated
09:17PM 41.4641 30.4581 319° Northwest  Level Estimated
09:18PM 41.5483 30.3591 319° Northwest  Level Estimated
09:19PM 41.6323 30.2598 319° Northwest  Level Estimated
09:20PM 41.7163 30.1602 319° Northwest  Level Estimated
09:21PM 41.8002 30.0604 318° Northwest  Level Estimated
09:22PM 41.8840 29.9604 318° Northwest  Level Estimated
09:23PM 41.9677 29.8600 318° Northwest  Level Estimated
09:24PM 42.0513 29.7594 318° Northwest  Level Estimated
09:25PM 42.1348 29.6586 318° Northwest  Level Estimated
09:26PM 42.2183 29.5574 318° Northwest  Level Estimated
09:27PM 42.3017 29.4560 318° Northwest  Level Estimated
09:28PM 42.3849 29.3543 318° Northwest  Level Estimated
09:29PM 42.4681 29.2524 318° Northwest  Level Estimated
09:30PM 42.5512 29.1502 318° Northwest  Level Estimated
09:31PM 42.6342 29.0477 318° Northwest  Level Estimated
09:32PM 42.7171 28.9450 318° Northwest  Level Estimated
09:33PM 42.7999 28.8419 318° Northwest  Level Estimated
09:34PM 42.8826 28.7386 318° Northwest  Level Estimated
09:35PM 42.9653 28.6350 317° Northwest  Level Estimated
09:36PM 43.0478 28.5312 317° Northwest  Level Estimated
09:37PM 43.1302 28.4270 317° Northwest  Level Estimated
09:38PM 43.2126 28.3226 317° Northwest  Level Estimated
09:39PM 43.2948 28.2179 317° Northwest  Level Estimated
09:40PM 43.3770 28.1129 317° Northwest  Level Estimated
09:41PM 43.4590 28.0076 317° Northwest  Level Estimated
09:42PM 43.5410 27.9021 317° Northwest  Level Estimated
09:43PM 43.6229 27.7962 317° Northwest  Level Estimated
09:44PM 43.7046 27.6901 317° Northwest  Level Estimated
09:45PM 43.7863 27.5836 317° Northwest  Level Estimated
09:46PM 43.8679 27.4769 317° Northwest  Level Estimated
09:47PM 43.9493 27.3699 317° Northwest  Level Estimated
09:48PM 44.0307 27.2626 317° Northwest  Level Estimated
09:49PM 44.1120 27.1550 316° Northwest  Level Estimated
09:50PM 44.1932 27.0471 316° Northwest  Level Estimated
09:51PM 44.2742 26.9389 316° Northwest  Level Estimated
09:52PM 44.3552 26.8304 316° Northwest  Level Estimated
09:53PM 44.4361 26.7216 316° Northwest  Level Estimated
09:54PM 44.5168 26.6126 316° Northwest  Level Estimated
09:55PM 44.5975 26.5032 316° Northwest  Level Estimated
09:56PM 44.6780 26.3935 316° Northwest  Level Estimated
09:57PM 44.7584 26.2835 316° Northwest  Level Estimated
09:58PM 44.8388 26.1732 316° Northwest  Level Estimated
09:59PM 44.9190 26.0625 316° Northwest  Level Estimated
10:00PM 44.9991 25.9516 316° Northwest  Level Estimated
10:01PM 45.0792 25.8404 316° Northwest  Level Estimated
10:02PM 45.1591 25.7288 315° West  Level Estimated
10:03PM 45.2389 25.6170 315° West  Level Estimated
10:04PM 45.3186 25.5048 315° West  Level Estimated
10:05PM 45.3981 25.3923 315° West  Level Estimated
10:06PM 45.4776 25.2795 315° West  Level Estimated
10:07PM 45.5570 25.1663 315° West  Level Estimated
10:08PM 45.6362 25.0529 315° West  Level Estimated
10:09PM 45.7153 24.9391 315° West  Level Estimated
10:10PM 45.7944 24.8250 315° West  Level Estimated
10:11PM 45.8733 24.7106 315° West  Level Estimated
10:12PM 45.9520 24.5959 315° West  Level Estimated
10:13PM 46.0307 24.4808 315° West  Level Estimated
10:14PM 46.1093 24.3654 314° West  Level Estimated
10:15PM 46.1877 24.2497 314° West  Level Estimated
10:16PM 46.2660 24.1336 314° West  Level Estimated
10:17PM 46.3443 24.0173 314° West  Level Estimated
10:18PM 46.4224 23.9005 314° West  Level Estimated
10:19PM 46.5003 23.7835 314° West  Level Estimated
10:20PM 46.5782 23.6661 314° West  Level Estimated
10:21PM 46.6559 23.5484 314° West  Level Estimated
10:22PM 46.7335 23.4303 314° West  Level Estimated
10:23PM 46.8110 23.3119 314° West  Level Estimated
10:24PM 46.8884 23.1931 314° West  Level Estimated
10:25PM 46.9656 23.0741 314° West  Level Estimated
10:26PM 47.0427 22.9546 313° West  Level Estimated
10:27PM 47.1197 22.8348 313° West  Level Estimated
10:28PM 47.1966 22.7147 313° West  Level Estimated
10:29PM 47.2733 22.5942 313° West  Level Estimated
10:30PM 47.3499 22.4734 313° West  Level Estimated
10:31PM 47.4264 22.3522 313° West  Level Estimated
10:32PM 47.5028 22.2307 313° West  Level Estimated
10:33PM 47.5790 22.1088 313° West  Level Estimated
10:34PM 47.6551 21.9866 313° West  Level Estimated
10:35PM 47.7311 21.8640 313° West  Level Estimated
10:36PM 47.8069 21.7410 313° West  Level Estimated
10:37PM 47.8826 21.6177 312° West  Level Estimated
10:38PM 47.9582 21.4941 312° West  Level Estimated
10:39PM 48.0337 21.3700 312° West  Level Estimated
10:40PM 48.1090 21.2456 312° West  Level Estimated
10:41PM 48.1842 21.1209 312° West  Level Estimated
10:42PM 48.2592 20.9957 312° West  Level Estimated
10:43PM 48.3341 20.8702 312° West  Level Estimated
10:44PM 48.4089 20.7444 312° West  Level Estimated
10:45PM 48.4835 20.6182 312° West  Level Estimated
10:46PM 48.5580 20.4915 312° West  Level Estimated
10:47PM 48.6323 20.3646 312° West  Level Estimated
10:48PM 48.7065 20.2372 311° West  Level Estimated
10:49PM 48.7806 20.1095 311° West  Level Estimated
10:50PM 48.8545 19.9814 311° West  Level Estimated
10:51PM 48.9283 19.8529 311° West  Level Estimated
10:52PM 49.0020 19.7240 311° West  Level Estimated
10:53PM 49.0755 19.5948 311° West  Level Estimated
10:54PM 49.1488 19.4651 311° West  Level Estimated
10:55PM 49.2220 19.3351 311° West  Level Estimated
10:56PM 49.2951 19.2047 311° West  Level Estimated
10:57PM 49.3680 19.0739 311° West  Level Estimated
10:58PM 49.4408 18.9428 310° West  Level Estimated
10:59PM 49.5134 18.8112 310° West  Level Estimated
11:00PM 49.5859 18.6793 310° West  Level Estimated
11:01PM 49.6582 18.5469 310° West  Level Estimated
11:02PM 49.7304 18.4142 310° West  Level Estimated
11:03PM 49.8024 18.2810 310° West  Level Estimated
11:04PM 49.8742 18.1475 310° West  Level Estimated
11:05PM 49.9459 18.0136 310° West  Level Estimated
11:06PM 50.0175 17.8792 310° West  Level Estimated
11:07PM 50.0889 17.7445 310° West  Level Estimated
11:08PM 50.1601 17.6094 309° West  Level Estimated
11:09PM 50.2312 17.4739 309° West  Level Estimated
11:10PM 50.3022 17.3379 309° West  Level Estimated
11:11PM 50.3729 17.2016 309° West  Level Estimated
11:12PM 50.4435 17.0648 309° West  Level Estimated
11:13PM 50.5140 16.9277 309° West  Level Estimated
11:14PM 50.5843 16.7901 309° West  Level Estimated
11:15PM 50.6544 16.6521 309° West  Level Estimated
11:16PM 50.7243 16.5137 309° West  Level Estimated
11:17PM 50.7942 16.3749 309° West  Level Estimated
11:18PM 50.8638 16.2357 308° West  Level Estimated
11:19PM 50.9332 16.0961 308° West  Level Estimated
11:20PM 51.0025 15.9560 308° West  Level Estimated
11:21PM 51.0717 15.8155 308° West  Level Estimated
11:22PM 51.1406 15.6747 308° West  Level Estimated
11:23PM 51.2094 15.5333 308° West  Level Estimated
11:24PM 51.2780 15.3916 308° West  Level Estimated
11:25PM 51.3465 15.2495 308° West  Level Estimated
11:26PM 51.4148 15.1069 308° West  Level Estimated
11:27PM 51.4829 14.9639 307° West  Level Estimated
11:28PM 51.5508 14.8204 307° West  Level Estimated
11:29PM 51.6185 14.6766 307° West  Level Estimated
11:30PM 51.6861 14.5323 307° West  Level Estimated
11:31PM 51.7535 14.3876 307° West  Level Estimated
11:32PM 51.8208 14.2424 307° West  Level Estimated
11:33PM 51.8878 14.0968 307° West  Level Estimated
11:34PM 51.9547 13.9508 307° West  Level Estimated
11:35PM 52.0213 13.8043 307° West  Level Estimated
11:36PM 52.0878 13.6574 306° West  Level Estimated
11:37PM 52.1541 13.5101 306° West  Level Estimated
11:38PM 52.2203 13.3624 306° West  Level Estimated
11:39PM 52.2862 13.2141 306° West  Level Estimated
11:40PM 52.3520 13.0655 306° West  Level Estimated
11:41PM 52.4175 12.9164 306° West  Level Estimated
11:42PM 52.4829 12.7669 306° West  Level Estimated
11:43PM 52.5481 12.6169 306° West  Level Estimated
11:44PM 52.6131 12.4664 305° West  Level Estimated
11:45PM 52.6779 12.3156 305° West  Level Estimated
11:46PM 52.7425 12.1642 305° West  Level Estimated
11:47PM 52.8070 12.0125 305° West  Level Estimated
11:48PM 52.8712 11.8603 305° West  Level Estimated
11:49PM 52.9352 11.7076 305° West  Level Estimated
11:50PM 52.9991 11.5545 305° West  Level Estimated
11:51PM 53.0627 11.4009 305° West  Level Estimated
11:52PM 53.1262 11.2469 305° West  Level Estimated
11:53PM 53.1894 11.0924 304° West  Level Estimated
11:54PM 53.2525 10.9374 304° West  Level Estimated
11:55PM 53.3153 10.7820 304° West  Level Estimated
11:56PM 53.3780 10.6262 304° West  Level Estimated
11:57PM 53.4404 10.4699 304° West  Level Estimated
11:58PM 53.5027 10.3131 304° West  Level Estimated
11:59PM 53.5647 10.1559 304° West  Level Estimated
12:00AM 53.6265 9.9981 304° West  Level Estimated
12:01AM 53.6304 9.9882 303° West  Level Estimated
12:02AM 53.6304 9.9882 230° Southwest  Level Estimated
12:03AM 53.6304 9.9882 230° Southwest  Level Estimated
12:04AM 53.6304 9.9882 230° Southwest  Level Estimated
12:05AM 53.6304 9.9882 230° Southwest  Level Estimated
12:06AM 53.6304 9.9882 230° Southwest  Level Estimated
12:07AM 53.6304 9.9882 230° Southwest  Level Estimated
12:08AM 53.6304 9.9882 230° Southwest  Level Estimated
12:09AM 53.6304 9.9882 230° Southwest  Level Estimated
12:10AM 53.6304 9.9882 230° Southwest  Level Estimated
12:11AM 53.6304 9.9882 230° Southwest  Level Estimated
12:12AM 53.6304 9.9882 230° Southwest  Level Estimated
12:13AM 53.6304 9.9882 230° Southwest  Level Estimated
12:14AM 53.6304 9.9882 230° Southwest  Level Estimated
12:15AM 53.6304 9.9882 230° Southwest  Level Estimated
12:16AM 53.6304 9.9882 230° Southwest  Level Estimated